Takamine — 7JKK — position and weather

sailwx.info

Track history (hours):
 
Tides and Currents Weather Stations Pressure Air Temp Water Temp Dewpoint Dewpoint Depression Visibility Wind Speed Wind Dir Waves Ship Positions

Takamine

Last reported at 2015-May-24 00:09 UTC. Time now 2015-May-24 07:12 UTC.
Position N 33°56' E 135°03'.

Length 333 m; draft 10.5 m.

Type: Ship (hazmat cat A). MMSI: 432832000.

Date/timePositionNaut miles runAvg speedWind from/ knotsBaromVisibWave heightAir tempDewpointWater temp
2015-May-24 00:09N 33°56' E 135°03'2 2.7
2015-May-23 23:19N 33°54' E 135°02'1 1.0
2015-May-23 22:33N 33°55' E 135°01'235 7.6
2015-May-22 15:33N 34°53' E 139°37'1111.0
2015-May-22 14:33N 35°03' E 139°42'10 9.8
2015-May-22 13:33N 35°12' E 139°47'9 9.3
2015-May-22 12:33N 35°21' E 139°42'8 8.1
2015-May-22 11:34N 35°28' E 139°47'0 0.3
2015-May-22 10:31N 35°28' E 139°46'0 0.1
2015-May-22 09:31N 35°28' E 139°46'0 0.0
2015-May-22 08:25N 35°28' E 139°46'0 0.0
2015-May-22 07:31N 35°28' E 139°46'0 0.0
2015-May-22 06:31N 35°28' E 139°46'0 0.3
2015-May-22 05:31N 35°28' E 139°46'1 0.9
2015-May-22 04:31N 35°27' E 139°46'0 0.0
2015-May-22 03:31N 35°27' E 139°46'0 0.0
2015-May-22 02:31N 35°27' E 139°46'0 0.0
2015-May-22 01:31N 35°27' E 139°46'0 0.0
2015-May-22 00:31N 35°27' E 139°46'0 0.0
2015-May-21 23:31N 35°27' E 139°46'0 0.0
2015-May-21 22:31N 35°27' E 139°46'0 0.0
2015-May-21 21:31N 35°27' E 139°46'0 0.0
2015-May-21 20:31N 35°27' E 139°46'0 0.0
2015-May-21 19:31N 35°27' E 139°46'0 0.1
2015-May-21 18:31N 35°27' E 139°46'0 0.1
2015-May-21 17:31N 35°27' E 139°46'0 0.1
2015-May-21 16:31N 35°27' E 139°46'0 0.2
2015-May-21 15:31N 35°27' E 139°46'0 0.1
2015-May-21 14:31N 35°27' E 139°46'0 0.1
2015-May-21 13:28N 35°27' E 139°46'0 0.0
2015-May-21 12:31N 35°27' E 139°46'0 0.0
2015-May-21 11:31N 35°27' E 139°46'0 0.0
2015-May-21 10:31N 35°27' E 139°46'0 0.1
2015-May-21 09:31N 35°27' E 139°46'0 0.0
2015-May-21 08:31N 35°27' E 139°46'0 0.1
2015-May-21 07:31N 35°27' E 139°46'0 0.0
2015-May-21 06:31N 35°27' E 139°46'0 0.2
2015-May-21 05:31N 35°27' E 139°46'0 0.1
2015-May-21 04:33N 35°27' E 139°46'6 6.5
2015-May-21 03:33N 35°30' E 139°53'2 1.9
2015-May-21 02:23N 35°31' E 139°56'0 0.0
2015-May-21 01:26N 35°31' E 139°56'0 0.0
2015-May-21 00:32N 35°31' E 139°56'0 0.0
2015-May-20 23:32N 35°31' E 139°56'0 0.0
2015-May-20 22:32N 35°31' E 139°56'0 0.0
2015-May-20 21:32N 35°31' E 139°56'0 0.0
2015-May-20 20:32N 35°31' E 139°56'0 0.0
2015-May-20 19:29N 35°31' E 139°56'0 0.0
2015-May-20 18:26N 35°31' E 139°56'0 0.0
2015-May-20 17:32N 35°31' E 139°56'0 0.0
2015-May-20 16:32N 35°31' E 139°56'0 0.0
2015-May-20 15:32N 35°31' E 139°56'0 0.0
2015-May-20 14:26N 35°31' E 139°56'0 0.0
2015-May-20 13:32N 35°31' E 139°56'0 0.0
2015-May-20 12:26N 35°31' E 139°56'0 0.0
2015-May-20 11:32N 35°31' E 139°56'0 0.0
2015-May-20 10:32N 35°31' E 139°56'0 0.0
2015-May-20 09:26N 35°31' E 139°56'0 0.0
2015-May-20 08:29N 35°31' E 139°56'0 0.0
2015-May-20 07:32N 35°31' E 139°56'0 0.0
2015-May-20 06:32N 35°31' E 139°56'0 0.0
2015-May-20 05:23N 35°31' E 139°56'0 0.0
2015-May-20 04:32N 35°31' E 139°56'0 0.0
2015-May-20 03:32N 35°31' E 139°56'0 0.0
2015-May-20 02:32N 35°31' E 139°56'0 0.0
2015-May-20 01:32N 35°31' E 139°56'0 0.0
2015-May-20 00:32N 35°31' E 139°56'0 0.0
2015-May-19 23:29N 35°31' E 139°56'0 0.0
2015-May-19 22:32N 35°31' E 139°56'0 0.0
2015-May-19 21:29N 35°31' E 139°56'0 0.0
2015-May-19 20:26N 35°31' E 139°56'0 0.0
2015-May-19 19:23N 35°31' E 139°56'0 0.0
2015-May-19 18:29N 35°31' E 139°56'0 0.0
2015-May-19 17:32N 35°31' E 139°56'0 0.0
2015-May-19 16:32N 35°31' E 139°56'0 0.0
2015-May-19 15:32N 35°31' E 139°56'0 0.0
2015-May-19 14:32N 35°31' E 139°56'0 0.0
2015-May-19 13:29N 35°31' E 139°56'0 0.0
2015-May-19 12:32N 35°31' E 139°56'0 0.0
2015-May-19 11:32N 35°31' E 139°56'0 0.0
2015-May-19 10:32N 35°31' E 139°56'0 0.0
2015-May-19 09:32N 35°31' E 139°56'0 0.0
2015-May-19 08:32N 35°31' E 139°56'0 0.0
2015-May-19 07:32N 35°31' E 139°56'0 0.0
2015-May-19 06:32N 35°31' E 139°56'0 0.0
2015-May-19 05:26N 35°31' E 139°56'0 0.0
2015-May-19 04:29N 35°31' E 139°56'0 0.0
2015-May-19 03:32N 35°31' E 139°56'0 0.0
2015-May-19 02:32N 35°31' E 139°56'0 0.0
2015-May-19 01:29N 35°31' E 139°56'0 0.0
2015-May-19 00:26N 35°31' E 139°56'0 0.0
2015-May-18 23:29N 35°31' E 139°56'0 0.0
2015-May-18 22:32N 35°31' E 139°56'0 0.0
2015-May-18 21:32N 35°31' E 139°56'0 0.0
2015-May-18 20:32N 35°31' E 139°56'0 0.0
2015-May-18 19:32N 35°31' E 139°56'0 0.0
2015-May-18 18:32N 35°31' E 139°56'0 0.0
2015-May-18 17:32N 35°31' E 139°56'0 0.0
2015-May-18 16:23N 35°31' E 139°56'0 0.0
2015-May-18 15:32N 35°31' E 139°56'0 0.0
2015-May-18 14:32N 35°31' E 139°56'0 0.0
2015-May-18 13:32N 35°31' E 139°56'0 0.0
2015-May-18 12:23N 35°31' E 139°56'0 0.0
2015-May-18 11:20N 35°31' E 139°56'0 0.0
2015-May-18 10:32N 35°31' E 139°56'0 0.0
2015-May-18 09:32N 35°31' E 139°56'0 0.0
2015-May-18 08:29N 35°31' E 139°56'0 0.0
2015-May-18 07:32N 35°31' E 139°56'0 0.0
2015-May-18 06:32N 35°31' E 139°56'0 0.0
2015-May-18 05:32N 35°31' E 139°56'2 1.9
2015-May-18 04:34N 35°30' E 139°54'0 0.2
2015-May-18 03:33N 35°30' E 139°54'0 0.1
2015-May-18 02:33N 35°29' E 139°54'0 0.0
2015-May-18 01:30N 35°29' E 139°54'0 0.0
2015-May-18 00:30N 35°29' E 139°54'0 0.1
2015-May-17 23:34N 35°29' E 139°54'0 0.0
2015-May-17 22:34N 35°29' E 139°54'0 0.0
2015-May-17 21:34N 35°29' E 139°54'0 0.0
2015-May-17 20:34N 35°29' E 139°54'0 0.0
2015-May-17 19:33N 35°29' E 139°54'0 0.1
2015-May-17 18:34N 35°30' E 139°54'0 0.1
2015-May-17 17:34N 35°30' E 139°54'0 0.0
2015-May-17 16:34N 35°30' E 139°54'0 0.1
2015-May-17 15:33N 35°30' E 139°54'0 0.0
2015-May-17 14:34N 35°30' E 139°54'0 0.0
2015-May-17 13:34N 35°29' E 139°54'0 0.0
2015-May-17 12:34N 35°29' E 139°54'0 0.0
2015-May-17 11:33N 35°29' E 139°54'0 0.0
2015-May-17 10:33N 35°29' E 139°54'0 0.0
2015-May-17 09:33N 35°29' E 139°54'1 1.2
2015-May-17 08:33N 35°29' E 139°53'6 5.6
2015-May-17 07:33N 35°28' E 139°46'0 0.2
2015-May-17 06:31N 35°28' E 139°46'0 0.1
2015-May-17 05:31N 35°28' E 139°46'0 0.1
2015-May-17 04:31N 35°28' E 139°46'0 0.1
2015-May-17 03:28N 35°28' E 139°46'0 0.1
2015-May-17 02:31N 35°28' E 139°46'0 0.0
2015-May-17 01:22N 35°28' E 139°46'0 0.0
2015-May-17 00:28N 35°28' E 139°46'0 0.0
2015-May-16 23:31N 35°28' E 139°46'0 0.1
2015-May-16 22:31N 35°28' E 139°46'0 0.0
2015-May-16 21:31N 35°28' E 139°46'0 0.0
2015-May-16 20:31N 35°28' E 139°46'0 0.0
2015-May-16 19:31N 35°28' E 139°46'0 0.2
2015-May-16 18:31N 35°28' E 139°46'0 0.1
2015-May-16 17:28N 35°28' E 139°46'0 0.2
2015-May-16 16:31N 35°28' E 139°46'0 0.1
2015-May-16 15:04N 35°28' E 139°46'0 0.0
2015-May-16 14:25N 35°28' E 139°46'0 0.1
2015-May-16 13:31N 35°28' E 139°46'0 0.0
2015-May-16 12:28N 35°28' E 139°46'0 0.0
2015-May-16 11:31N 35°28' E 139°46'0 0.0
2015-May-16 10:31N 35°28' E 139°46'0 0.1
2015-May-16 09:28N 35°28' E 139°46'0 0.0
2015-May-16 08:28N 35°28' E 139°46'0 0.0
2015-May-16 07:22N 35°28' E 139°46'0 0.0
2015-May-16 06:25N 35°28' E 139°46'0 0.1
2015-May-16 05:31N 35°28' E 139°46'0 0.2
2015-May-16 04:31N 35°28' E 139°46'0 0.1
2015-May-16 03:31N 35°28' E 139°46'0 0.1
2015-May-16 02:31N 35°28' E 139°46'0 0.1
2015-May-16 01:31N 35°28' E 139°46'0 0.1
2015-May-16 00:22N 35°28' E 139°46'0 0.0
2015-May-15 23:31N 35°28' E 139°46'0 0.0
2015-May-15 22:31N 35°28' E 139°46'0 0.0
2015-May-15 21:31N 35°28' E 139°46'0 0.0
2015-May-15 20:28N 35°28' E 139°46'0 0.1
2015-May-15 19:31N 35°28' E 139°46'0 0.2
2015-May-15 18:31N 35°28' E 139°46'0 0.0
2015-May-15 17:31N 35°28' E 139°46'0 0.1
2015-May-15 16:31N 35°28' E 139°46'0 0.1
2015-May-15 15:31N 35°28' E 139°46'0 0.1
2015-May-15 14:31N 35°28' E 139°46'0 0.0
2015-May-15 13:31N 35°28' E 139°46'0 0.1
2015-May-15 12:31N 35°28' E 139°46'0 0.1
2015-May-15 11:31N 35°28' E 139°46'0 0.1
2015-May-15 10:31N 35°28' E 139°46'0 0.1
2015-May-15 09:31N 35°28' E 139°46'0 0.0
2015-May-15 08:31N 35°28' E 139°46'0 0.0
2015-May-15 07:31N 35°28' E 139°46'0 0.0
2015-May-15 06:31N 35°28' E 139°46'0 0.2
2015-May-15 05:31N 35°28' E 139°46'0 0.1
2015-May-15 04:28N 35°28' E 139°46'0 0.1
2015-May-15 03:31N 35°28' E 139°46'0 0.3
2015-May-15 02:33N 35°28' E 139°46'5 4.6
2015-May-15 01:34N 35°24' E 139°43'8 8.2
2015-May-15 00:33N 35°16' E 139°47'8 8.3
2015-May-14 23:33N 35°08' E 139°46'7 7.4
2015-May-14 22:33N 35°01' E 139°42'7 7.2
2015-May-14 21:33N 34°54' E 139°39'5 5.1
2015-May-14 20:33N 34°49' E 139°38'5 4.7
2015-May-14 19:34N 34°45' E 139°40'7 6.9
2015-May-14 18:30N 34°40' E 139°46'7 6.6
2015-May-14 17:25N 34°37' E 139°54'5 1.0
2015-May-14 12:33N 34°39' E 139°49'5 1.4
2015-May-14 09:09N 34°42' E 139°44'4 1.3
2015-May-14 06:14N 34°44' E 139°41'8 7.9
2015-May-14 05:15N 34°52' E 139°39'6 8.3
2015-May-14 04:32N 34°58' E 139°39'8 8.2
2015-May-14 03:33N 35°05' E 139°43'8 7.4
2015-May-14 02:33N 35°12' E 139°46'7 6.9
2015-May-14 01:33N 35°19' E 139°43'4 3.9
2015-May-14 00:34N 35°16' E 139°47'  
Track history (hours):
 
Tides and Currents Weather Stations Pressure Air Temp Water Temp Dewpoint Dewpoint Depression Visibility Wind Speed Wind Dir Waves Ship Positions

Takamine

Last reported at 2015-May-24 00:09 UTC. Time now 2015-May-24 07:12 UTC.
Position N 33°56' E 135°03'.

Length 333 m; draft 10.5 m.

Type: Ship (hazmat cat A). MMSI: 432832000.

Date/timePositionNaut miles runAvg speedWind from/ knotsBaromVisibWave heightAir tempDewpointWater temp
2015-May-24 00:09N 33°56' E 135°03'2 2.7
2015-May-23 23:19N 33°54' E 135°02'1 1.0
2015-May-23 22:33N 33°55' E 135°01'235 7.6
2015-May-22 15:33N 34°53' E 139°37'1111.0
2015-May-22 14:33N 35°03' E 139°42'10 9.8
2015-May-22 13:33N 35°12' E 139°47'9 9.3
2015-May-22 12:33N 35°21' E 139°42'8 8.1
2015-May-22 11:34N 35°28' E 139°47'0 0.3
2015-May-22 10:31N 35°28' E 139°46'0 0.1
2015-May-22 09:31N 35°28' E 139°46'0 0.0
2015-May-22 08:25N 35°28' E 139°46'0 0.0
2015-May-22 07:31N 35°28' E 139°46'0 0.0
2015-May-22 06:31N 35°28' E 139°46'0 0.3
2015-May-22 05:31N 35°28' E 139°46'1 0.9
2015-May-22 04:31N 35°27' E 139°46'0 0.0
2015-May-22 03:31N 35°27' E 139°46'0 0.0
2015-May-22 02:31N 35°27' E 139°46'0 0.0
2015-May-22 01:31N 35°27' E 139°46'0 0.0
2015-May-22 00:31N 35°27' E 139°46'0 0.0
2015-May-21 23:31N 35°27' E 139°46'0 0.0
2015-May-21 22:31N 35°27' E 139°46'0 0.0
2015-May-21 21:31N 35°27' E 139°46'0 0.0
2015-May-21 20:31N 35°27' E 139°46'0 0.0
2015-May-21 19:31N 35°27' E 139°46'0 0.1
2015-May-21 18:31N 35°27' E 139°46'0 0.1
2015-May-21 17:31N 35°27' E 139°46'0 0.1
2015-May-21 16:31N 35°27' E 139°46'0 0.2
2015-May-21 15:31N 35°27' E 139°46'0 0.1
2015-May-21 14:31N 35°27' E 139°46'0 0.1
2015-May-21 13:28N 35°27' E 139°46'0 0.0
2015-May-21 12:31N 35°27' E 139°46'0 0.0
2015-May-21 11:31N 35°27' E 139°46'0 0.0
2015-May-21 10:31N 35°27' E 139°46'0 0.1
2015-May-21 09:31N 35°27' E 139°46'0 0.0
2015-May-21 08:31N 35°27' E 139°46'0 0.1
2015-May-21 07:31N 35°27' E 139°46'0 0.0
2015-May-21 06:31N 35°27' E 139°46'0 0.2
2015-May-21 05:31N 35°27' E 139°46'0 0.1
2015-May-21 04:33N 35°27' E 139°46'6 6.5
2015-May-21 03:33N 35°30' E 139°53'2 1.9
2015-May-21 02:23N 35°31' E 139°56'0 0.0
2015-May-21 01:26N 35°31' E 139°56'0 0.0
2015-May-21 00:32N 35°31' E 139°56'0 0.0
2015-May-20 23:32N 35°31' E 139°56'0 0.0
2015-May-20 22:32N 35°31' E 139°56'0 0.0
2015-May-20 21:32N 35°31' E 139°56'0 0.0
2015-May-20 20:32N 35°31' E 139°56'0 0.0
2015-May-20 19:29N 35°31' E 139°56'0 0.0
2015-May-20 18:26N 35°31' E 139°56'0 0.0
2015-May-20 17:32N 35°31' E 139°56'0 0.0
2015-May-20 16:32N 35°31' E 139°56'0 0.0
2015-May-20 15:32N 35°31' E 139°56'0 0.0
2015-May-20 14:26N 35°31' E 139°56'0 0.0
2015-May-20 13:32N 35°31' E 139°56'0 0.0
2015-May-20 12:26N 35°31' E 139°56'0 0.0
2015-May-20 11:32N 35°31' E 139°56'0 0.0
2015-May-20 10:32N 35°31' E 139°56'0 0.0
2015-May-20 09:26N 35°31' E 139°56'0 0.0
2015-May-20 08:29N 35°31' E 139°56'0 0.0
2015-May-20 07:32N 35°31' E 139°56'0 0.0
2015-May-20 06:32N 35°31' E 139°56'0 0.0
2015-May-20 05:23N 35°31' E 139°56'0 0.0
2015-May-20 04:32N 35°31' E 139°56'0 0.0
2015-May-20 03:32N 35°31' E 139°56'0 0.0
2015-May-20 02:32N 35°31' E 139°56'0 0.0
2015-May-20 01:32N 35°31' E 139°56'0 0.0
2015-May-20 00:32N 35°31' E 139°56'0 0.0
2015-May-19 23:29N 35°31' E 139°56'0 0.0
2015-May-19 22:32N 35°31' E 139°56'0 0.0
2015-May-19 21:29N 35°31' E 139°56'0 0.0
2015-May-19 20:26N 35°31' E 139°56'0 0.0
2015-May-19 19:23N 35°31' E 139°56'0 0.0
2015-May-19 18:29N 35°31' E 139°56'0 0.0
2015-May-19 17:32N 35°31' E 139°56'0 0.0
2015-May-19 16:32N 35°31' E 139°56'0 0.0
2015-May-19 15:32N 35°31' E 139°56'0 0.0
2015-May-19 14:32N 35°31' E 139°56'0 0.0
2015-May-19 13:29N 35°31' E 139°56'0 0.0
2015-May-19 12:32N 35°31' E 139°56'0 0.0
2015-May-19 11:32N 35°31' E 139°56'0 0.0
2015-May-19 10:32N 35°31' E 139°56'0 0.0
2015-May-19 09:32N 35°31' E 139°56'0 0.0
2015-May-19 08:32N 35°31' E 139°56'0 0.0
2015-May-19 07:32N 35°31' E 139°56'0 0.0
2015-May-19 06:32N 35°31' E 139°56'0 0.0
2015-May-19 05:26N 35°31' E 139°56'0 0.0
2015-May-19 04:29N 35°31' E 139°56'0 0.0
2015-May-19 03:32N 35°31' E 139°56'0 0.0
2015-May-19 02:32N 35°31' E 139°56'0 0.0
2015-May-19 01:29N 35°31' E 139°56'0 0.0
2015-May-19 00:26N 35°31' E 139°56'0 0.0
2015-May-18 23:29N 35°31' E 139°56'0 0.0
2015-May-18 22:32N 35°31' E 139°56'0 0.0
2015-May-18 21:32N 35°31' E 139°56'0 0.0
2015-May-18 20:32N 35°31' E 139°56'0 0.0
2015-May-18 19:32N 35°31' E 139°56'0 0.0
2015-May-18 18:32N 35°31' E 139°56'0 0.0
2015-May-18 17:32N 35°31' E 139°56'0 0.0
2015-May-18 16:23N 35°31' E 139°56'0 0.0
2015-May-18 15:32N 35°31' E 139°56'0 0.0
2015-May-18 14:32N 35°31' E 139°56'0 0.0
2015-May-18 13:32N 35°31' E 139°56'0 0.0
2015-May-18 12:23N 35°31' E 139°56'0 0.0
2015-May-18 11:20N 35°31' E 139°56'0 0.0
2015-May-18 10:32N 35°31' E 139°56'0 0.0
2015-May-18 09:32N 35°31' E 139°56'0 0.0
2015-May-18 08:29N 35°31' E 139°56'0 0.0
2015-May-18 07:32N 35°31' E 139°56'0 0.0
2015-May-18 06:32N 35°31' E 139°56'0 0.0
2015-May-18 05:32N 35°31' E 139°56'2 1.9
2015-May-18 04:34N 35°30' E 139°54'0 0.2
2015-May-18 03:33N 35°30' E 139°54'0 0.1
2015-May-18 02:33N 35°29' E 139°54'0 0.0
2015-May-18 01:30N 35°29' E 139°54'0 0.0
2015-May-18 00:30N 35°29' E 139°54'0 0.1
2015-May-17 23:34N 35°29' E 139°54'0 0.0
2015-May-17 22:34N 35°29' E 139°54'0 0.0
2015-May-17 21:34N 35°29' E 139°54'0 0.0
2015-May-17 20:34N 35°29' E 139°54'0 0.0
2015-May-17 19:33N 35°29' E 139°54'0 0.1
2015-May-17 18:34N 35°30' E 139°54'0 0.1
2015-May-17 17:34N 35°30' E 139°54'0 0.0
2015-May-17 16:34N 35°30' E 139°54'0 0.1
2015-May-17 15:33N 35°30' E 139°54'0 0.0
2015-May-17 14:34N 35°30' E 139°54'0 0.0
2015-May-17 13:34N 35°29' E 139°54'0 0.0
2015-May-17 12:34N 35°29' E 139°54'0 0.0
2015-May-17 11:33N 35°29' E 139°54'0 0.0
2015-May-17 10:33N 35°29' E 139°54'0 0.0
2015-May-17 09:33N 35°29' E 139°54'1 1.2
2015-May-17 08:33N 35°29' E 139°53'6 5.6
2015-May-17 07:33N 35°28' E 139°46'0 0.2
2015-May-17 06:31N 35°28' E 139°46'0 0.1
2015-May-17 05:31N 35°28' E 139°46'0 0.1
2015-May-17 04:31N 35°28' E 139°46'0 0.1
2015-May-17 03:28N 35°28' E 139°46'0 0.1
2015-May-17 02:31N 35°28' E 139°46'0 0.0
2015-May-17 01:22N 35°28' E 139°46'0 0.0
2015-May-17 00:28N 35°28' E 139°46'0 0.0
2015-May-16 23:31N 35°28' E 139°46'0 0.1
2015-May-16 22:31N 35°28' E 139°46'0 0.0
2015-May-16 21:31N 35°28' E 139°46'0 0.0
2015-May-16 20:31N 35°28' E 139°46'0 0.0
2015-May-16 19:31N 35°28' E 139°46'0 0.2
2015-May-16 18:31N 35°28' E 139°46'0 0.1
2015-May-16 17:28N 35°28' E 139°46'0 0.2
2015-May-16 16:31N 35°28' E 139°46'0 0.1
2015-May-16 15:04N 35°28' E 139°46'0 0.0
2015-May-16 14:25N 35°28' E 139°46'0 0.1
2015-May-16 13:31N 35°28' E 139°46'0 0.0
2015-May-16 12:28N 35°28' E 139°46'0 0.0
2015-May-16 11:31N 35°28' E 139°46'0 0.0
2015-May-16 10:31N 35°28' E 139°46'0 0.1
2015-May-16 09:28N 35°28' E 139°46'0 0.0
2015-May-16 08:28N 35°28' E 139°46'0 0.0
2015-May-16 07:22N 35°28' E 139°46'0 0.0
2015-May-16 06:25N 35°28' E 139°46'0 0.1
2015-May-16 05:31N 35°28' E 139°46'0 0.2
2015-May-16 04:31N 35°28' E 139°46'0 0.1
2015-May-16 03:31N 35°28' E 139°46'0 0.1
2015-May-16 02:31N 35°28' E 139°46'0 0.1
2015-May-16 01:31N 35°28' E 139°46'0 0.1
2015-May-16 00:22N 35°28' E 139°46'0 0.0
2015-May-15 23:31N 35°28' E 139°46'0 0.0
2015-May-15 22:31N 35°28' E 139°46'0 0.0
2015-May-15 21:31N 35°28' E 139°46'0 0.0
2015-May-15 20:28N 35°28' E 139°46'0 0.1
2015-May-15 19:31N 35°28' E 139°46'0 0.2
2015-May-15 18:31N 35°28' E 139°46'0 0.0
2015-May-15 17:31N 35°28' E 139°46'0 0.1
2015-May-15 16:31N 35°28' E 139°46'0 0.1
2015-May-15 15:31N 35°28' E 139°46'0 0.1
2015-May-15 14:31N 35°28' E 139°46'0 0.0
2015-May-15 13:31N 35°28' E 139°46'0 0.1
2015-May-15 12:31N 35°28' E 139°46'0 0.1
2015-May-15 11:31N 35°28' E 139°46'0 0.1
2015-May-15 10:31N 35°28' E 139°46'0 0.1
2015-May-15 09:31N 35°28' E 139°46'0 0.0
2015-May-15 08:31N 35°28' E 139°46'0 0.0
2015-May-15 07:31N 35°28' E 139°46'0 0.0
2015-May-15 06:31N 35°28' E 139°46'0 0.2
2015-May-15 05:31N 35°28' E 139°46'0 0.1
2015-May-15 04:28N 35°28' E 139°46'0 0.1
2015-May-15 03:31N 35°28' E 139°46'0 0.3
2015-May-15 02:33N 35°28' E 139°46'5 4.6
2015-May-15 01:34N 35°24' E 139°43'8 8.2
2015-May-15 00:33N 35°16' E 139°47'8 8.3
2015-May-14 23:33N 35°08' E 139°46'7 7.4
2015-May-14 22:33N 35°01' E 139°42'7 7.2
2015-May-14 21:33N 34°54' E 139°39'5 5.1
2015-May-14 20:33N 34°49' E 139°38'5 4.7
2015-May-14 19:34N 34°45' E 139°40'7 6.9
2015-May-14 18:30N 34°40' E 139°46'7 6.6
2015-May-14 17:25N 34°37' E 139°54'5 1.0
2015-May-14 12:33N 34°39' E 139°49'5 1.4
2015-May-14 09:09N 34°42' E 139°44'4 1.3
2015-May-14 06:14N 34°44' E 139°41'8 7.9
2015-May-14 05:15N 34°52' E 139°39'6 8.3
2015-May-14 04:32N 34°58' E 139°39'8 8.2
2015-May-14 03:33N 35°05' E 139°43'8 7.4
2015-May-14 02:33N 35°12' E 139°46'7 6.9
2015-May-14 01:33N 35°19' E 139°43'4 3.9
2015-May-14 00:34N 35°16' E 139°47'  

Dump ship's entire track history